Time;durP1;ratioP1;P1;durP2;ratioP2;P2;SDS_P1;SDS_P2;PMS_P1;PMS_P2;Temp;Humidity;BMP_temperature;BMP_pressure;BME280_temperature;BME280_humidity;BME280_pressure;Samples;Min_cycle;Max_cycle;Signal;HPM_P1;HPM_P2
2023/01/21 00:00:24;;;;;;;19.10;14.40;;;;;;;1.01;87.96;98430.91;4187961;28;20263;-84
2023/01/21 00:02:27;;;;;;;17.20;12.25;;;;;;;1.01;87.92;98430.91;4151579;28;20206;-84
2023/01/21 00:04:33;;;;;;;17.90;13.40;;;;;;;1.01;88.04;98430.06;4172351;28;20233;-84
2023/01/21 00:06:36;;;;;;;19.08;12.90;;;;;;;1.00;88.37;98439.47;4188661;28;20258;-84
2023/01/21 00:08:39;;;;;;;16.80;13.00;;;;;;;1.00;88.53;98448.91;4167721;28;20725;-84
2023/01/21 00:10:43;;;;;;;19.60;13.85;;;;;;;1.00;88.35;98448.91;4156154;28;20269;-84
2023/01/21 00:12:46;;;;;;;17.90;12.68;;;;;;;1.01;87.85;98453.19;4168847;28;20682;-84
2023/01/21 00:14:51;;;;;;;18.30;12.75;;;;;;;1.00;88.34;98454.06;4135623;28;20219;-84
2023/01/21 00:16:54;;;;;;;21.25;13.48;;;;;;;0.98;88.41;98445.56;4153949;28;20223;-84
2023/01/21 00:18:57;;;;;;;16.98;12.57;;;;;;;0.97;88.25;98451.56;4169162;28;20202;-84
2023/01/21 00:21:00;;;;;;;21.25;14.90;;;;;;;0.97;88.83;98452.41;4149108;28;20645;-84
2023/01/21 00:23:03;;;;;;;17.58;12.57;;;;;;;0.97;88.66;98452.41;4169477;28;20245;-84
2023/01/21 00:25:07;;;;;;;17.63;12.25;;;;;;;0.98;88.72;98455.81;4165648;28;20203;-85
2023/01/21 00:27:12;;;;;;;23.40;13.55;;;;;;;0.96;88.52;98457.56;4165635;28;20268;-84
2023/01/21 00:29:15;;;;;;;17.90;14.35;;;;;;;0.95;88.11;98461.03;4152768;28;20218;-84
2023/01/21 00:31:18;;;;;;;17.52;13.57;;;;;;;0.95;88.10;98455.91;4139391;28;20275;-84
2023/01/21 00:33:21;;;;;;;20.58;13.25;;;;;;;0.93;88.44;98450.81;4154402;28;20981;-84
2023/01/21 00:35:24;;;;;;;17.55;12.60;;;;;;;0.95;87.97;98461.88;4151708;28;20290;-84
2023/01/21 00:37:27;;;;;;;21.08;13.18;;;;;;;0.95;88.44;98461.03;4152755;28;20225;-84
2023/01/21 00:39:30;;;;;;;20.38;13.52;;;;;;;0.93;87.75;98466.22;4150004;28;20213;-84
2023/01/21 00:41:33;;;;;;;22.20;14.65;;;;;;;0.93;88.37;98460.22;4136721;28;20211;-84
2023/01/21 00:43:38;;;;;;;17.77;13.35;;;;;;;0.92;88.31;98458.53;4154577;28;20199;-84
2023/01/21 00:45:41;;;;;;;17.45;13.27;;;;;;;0.94;88.02;98459.34;4150361;28;20231;-84
2023/01/21 00:47:44;;;;;;;20.83;13.27;;;;;;;0.95;88.47;98458.47;4169046;28;20341;-84
2023/01/21 00:49:47;;;;;;;17.35;12.55;;;;;;;0.96;88.83;98465.25;4151961;28;20207;-85
2023/01/21 00:51:50;;;;;;;18.27;13.68;;;;;;;0.95;88.09;98458.47;4146299;28;20261;-84
2023/01/21 00:53:53;;;;;;;23.10;13.73;;;;;;;0.93;88.13;98460.22;4169461;28;20210;-84
2023/01/21 00:55:59;;;;;;;18.02;11.95;;;;;;;0.92;87.98;98465.38;4136697;28;20290;-85
2023/01/21 00:58:02;;;;;;;20.98;12.93;;;;;;;0.87;87.95;98465.50;4169698;28;20269;-84
2023/01/21 01:00:11;;;;;;;17.08;13.63;;;;;;;0.83;88.05;98461.34;4172835;28;20218;-84
2023/01/21 01:02:14;;;;;;;21.67;13.95;;;;;;;0.81;88.03;98468.22;4154852;28;20211;-84
2023/01/21 01:04:18;;;;;;;23.00;13.48;;;;;;;0.81;87.89;98467.38;4153222;28;20202;-86
2023/01/21 01:06:23;;;;;;;18.45;13.10;;;;;;;0.78;87.05;98470.00;4153053;28;20209;-86
2023/01/21 01:08:26;;;;;;;19.20;12.25;;;;;;;0.70;87.66;98470.19;4170486;28;20206;-86
2023/01/21 01:10:29;;;;;;;16.00;11.40;;;;;;;0.69;87.31;98475.38;4156190;28;20253;-86
2023/01/21 01:12:32;;;;;;;16.55;11.25;;;;;;;0.67;86.81;98472.81;4172270;28;20202;-86
2023/01/21 01:14:35;;;;;;;19.98;13.43;;;;;;;0.63;87.54;98473.81;4155689;28;20664;-84
2023/01/21 01:16:39;;;;;;;24.02;13.95;;;;;;;0.60;86.82;98473.88;4158569;28;20383;-84
2023/01/21 01:18:43;;;;;;;21.83;14.00;;;;;;;0.59;87.23;98479.88;4142217;28;20294;-85
2023/01/21 01:20:46;;;;;;;23.52;13.65;;;;;;;0.58;87.51;98480.75;4174395;28;20571;-84
2023/01/21 01:22:49;;;;;;;21.08;13.05;;;;;;;0.59;87.86;98485.00;4156405;28;20250;-84
2023/01/21 01:24:52;;;;;;;18.83;13.65;;;;;;;0.57;86.97;98480.78;4155390;28;20203;-86
2023/01/21 01:26:57;;;;;;;20.52;13.02;;;;;;;0.58;86.87;98483.31;4153805;28;20206;-85
2023/01/21 01:29:00;;;;;;;18.75;13.98;;;;;;;0.58;87.05;98488.44;4149732;28;20257;-86
2023/01/21 01:31:04;;;;;;;20.83;14.13;;;;;;;0.56;87.01;98484.25;4157075;28;20642;-86
2023/01/21 01:33:09;;;;;;;15.85;11.80;;;;;;;0.54;87.66;98484.28;4151880;28;20301;-86
2023/01/21 01:35:12;;;;;;;17.88;11.35;;;;;;;0.54;87.56;98488.53;4158682;28;20720;-86
2023/01/21 01:37:15;;;;;;;18.15;12.60;;;;;;;0.52;86.89;98492.88;4155241;28;20222;-86
2023/01/21 01:39:18;;;;;;;18.30;13.32;;;;;;;0.51;86.93;98492.03;4171112;28;20211;-86
2023/01/21 01:41:26;;;;;;;17.05;12.23;;;;;;;0.48;86.66;98494.66;4141814;28;20308;-85
2023/01/21 01:43:54;;;;;;;17.35;12.38;;;;;;;0.44;86.62;98496.47;4154271;28;20592;-84
2023/01/21 01:45:57;;;;;;;27.42;14.45;;;;;;;0.42;86.77;98499.06;4170738;28;20206;-84
2023/01/21 01:48:02;;;;;;;24.70;14.02;;;;;;;0.45;87.03;98500.75;4170543;28;20670;-84
2023/01/21 01:50:10;;;;;;;23.35;13.70;;;;;;;0.43;87.54;98505.91;4141495;28;20207;-84
2023/01/21 01:52:14;;;;;;;24.58;12.90;;;;;;;0.40;87.08;98495.72;4169439;28;20309;-84
2023/01/21 01:54:20;;;;;;;20.33;12.05;;;;;;;0.36;87.88;98499.25;4158608;28;20207;-86
2023/01/21 01:56:23;;;;;;;27.42;13.63;;;;;;;0.37;87.58;98503.47;4173674;28;20714;-86
2023/01/21 01:58:27;;;;;;;19.77;12.00;;;;;;;0.37;87.37;98500.06;4155716;28;20218;-86
2023/01/21 02:00:30;;;;;;;17.55;11.50;;;;;;;0.36;86.96;98499.25;4140375;28;20294;-86
2023/01/21 02:02:34;;;;;;;14.00;10.35;;;;;;;0.35;86.64;98501.84;4154841;28;20198;-86
2023/01/21 02:04:39;;;;;;;14.00;10.73;;;;;;;0.30;86.35;98496.81;4155650;28;20320;-86
2023/01/21 02:06:44;;;;;;;19.35;12.25;;;;;;;0.29;87.19;98494.28;4170673;28;20212;-86
2023/01/21 02:08:47;;;;;;;22.38;12.60;;;;;;;0.28;86.66;98495.97;4155990;28;20210;-86
2023/01/21 02:10:50;;;;;;;16.85;11.60;;;;;;;0.26;86.30;98504.59;4155740;28;20203;-86
2023/01/21 02:12:53;;;;;;;18.70;12.48;;;;;;;0.22;86.46;98508.09;4168986;28;20191;-87
2023/01/21 02:14:56;;;;;;;16.10;12.02;;;;;;;0.20;86.83;98508.13;4153538;28;20272;-86
2023/01/21 02:17:07;;;;;;;15.68;11.10;;;;;;;0.20;86.85;98509.84;4171001;28;20319;-87
2023/01/21 02:19:41;;;;;;;16.27;12.20;;;;;;;0.18;86.97;98514.16;4136668;28;20257;-86
2023/01/21 02:21:54;;;;;;;18.70;11.95;;;;;;;0.13;86.98;98521.94;4169682;28;20737;-87
2023/01/21 02:24:14;;;;;;;17.77;13.15;;;;;;;0.05;87.32;98513.56;4149601;28;20207;-87
2023/01/21 02:26:47;;;;;;;19.25;12.15;;;;;;;0.01;86.80;98514.50;4151235;28;20215;-86
2023/01/21 02:29:13;;;;;;;19.15;12.25;;;;;;;0.00;86.89;98522.25;4137862;28;20206;-86
2023/01/21 02:31:36;;;;;;;21.50;12.43;;;;;;;-0.02;87.00;98512.88;4153901;28;20671;-87
2023/01/21 02:33:54;;;;;;;16.63;11.93;;;;;;;-0.03;86.86;98518.88;4173079;28;20690;-86
2023/01/21 02:36:07;;;;;;;20.27;13.85;;;;;;;-0.06;87.18;98521.50;4141830;28;20752;-87
2023/01/21 02:38:15;;;;;;;15.18;11.73;;;;;;;-0.08;86.96;98518.13;4156130;28;20248;-86
2023/01/21 02:40:23;;;;;;;15.60;11.57;;;;;;;-0.07;86.64;98523.22;4171161;28;20208;-86
2023/01/21 02:42:32;;;;;;;16.52;12.40;;;;;;;-0.06;87.05;98529.19;4154363;28;20203;-86
2023/01/21 02:44:39;;;;;;;18.10;12.20;;;;;;;-0.08;86.51;98526.66;4167778;28;20212;-87
2023/01/21 02:46:45;;;;;;;16.90;12.30;;;;;;;-0.09;86.89;98529.25;4166075;28;20587;-87
2023/01/21 02:48:54;;;;;;;17.10;12.73;;;;;;;-0.08;87.42;98528.38;4141272;28;20215;-86
2023/01/21 02:50:57;;;;;;;19.33;12.20;;;;;;;-0.09;87.26;98535.25;4154268;28;20554;-87
2023/01/21 02:53:02;;;;;;;16.10;12.05;;;;;;;-0.10;87.19;98533.53;4173874;28;20202;-87
2023/01/21 02:55:09;;;;;;;17.25;12.20;;;;;;;-0.10;86.75;98528.41;4170956;28;20215;-86
2023/01/21 02:57:15;;;;;;;17.63;12.43;;;;;;;-0.14;86.81;98531.91;4171102;28;20773;-86
2023/01/21 02:59:18;;;;;;;17.88;12.60;;;;;;;-0.14;87.08;98531.91;4171346;28;20214;-86
2023/01/21 03:01:27;;;;;;;15.23;11.60;;;;;;;-0.15;87.17;98535.34;4154612;28;20207;-87
2023/01/21 03:03:55;;;;;;;16.65;12.15;;;;;;;-0.15;86.77;98535.34;4171118;28;20264;-87
2023/01/21 03:06:40;;;;;;;16.27;11.63;;;;;;;-0.15;86.81;98535.34;4171528;28;20248;-87
2023/01/21 03:08:48;;;;;;;17.70;12.10;;;;;;;-0.17;87.14;98531.13;4160486;28;20202;-87
2023/01/21 03:10:58;;;;;;;20.92;13.10;;;;;;;-0.17;86.93;98536.25;4167810;28;20728;-86
2023/01/21 03:13:04;;;;;;;16.33;11.93;;;;;;;-0.19;86.83;98549.09;4168585;28;20233;-86
2023/01/21 03:17:35;;;;;;;16.73;11.35;;;;;;;-0.24;86.33;98550.91;4164446;28;20319;-86
2023/01/21 03:19:50;;;;;;;14.60;11.65;;;;;;;-0.26;86.53;98555.19;4151737;28;20235;-86
2023/01/21 03:21:53;;;;;;;18.65;12.23;;;;;;;-0.28;87.11;98546.69;4152861;28;20203;-86
2023/01/21 03:23:58;;;;;;;17.33;11.75;;;;;;;-0.29;86.48;98550.13;4150582;28;20627;-86
2023/01/21 03:26:01;;;;;;;15.05;11.25;;;;;;;-0.30;86.58;98553.56;4150381;28;20217;-86
2023/01/21 03:28:07;;;;;;;16.02;11.93;;;;;;;-0.29;86.92;98554.41;4169428;28;20292;-87
2023/01/21 03:30:13;;;;;;;15.48;11.60;;;;;;;-0.29;86.62;98552.69;4151611;28;20206;-86
2023/01/21 03:32:18;;;;;;;17.77;11.50;;;;;;;-0.32;86.37;98552.75;4165759;28;20288;-87
2023/01/21 03:34:23;;;;;;;14.75;11.50;;;;;;;-0.32;85.89;98557.03;4150773;28;20207;-86
2023/01/21 03:36:33;;;;;;;16.80;11.05;;;;;;;-0.31;85.91;98554.44;4158225;28;20298;-86
2023/01/21 03:38:39;;;;;;;16.80;11.43;;;;;;;-0.31;85.72;98556.16;4154193;28;20273;-86
2023/01/21 03:40:46;;;;;;;15.35;11.52;;;;;;;-0.32;85.90;98559.59;4151364;28;20207;-86
2023/01/21 03:42:51;;;;;;;14.43;10.82;;;;;;;-0.33;85.94;98560.44;4168279;28;20203;-86
2023/01/21 03:44:54;;;;;;;17.88;11.90;;;;;;;-0.35;85.74;98559.66;4153513;28;20371;-86
2023/01/21 03:47:02;;;;;;;18.08;12.13;;;;;;;-0.38;85.88;98562.25;4153844;28;20663;-86
2023/01/21 03:49:07;;;;;;;16.90;11.80;;;;;;;-0.35;86.16;98562.22;4154900;28;20225;-86
2023/01/21 03:51:15;;;;;;;17.17;11.38;;;;;;;-0.38;86.13;98552.84;4153847;28;20213;-86
2023/01/21 03:53:19;;;;;;;20.75;12.85;;;;;;;-0.37;86.52;98556.28;4169435;28;20198;-87
2023/01/21 03:55:22;;;;;;;16.90;11.95;;;;;;;-0.37;86.37;98559.69;4154174;28;20208;-87
2023/01/21 03:57:25;;;;;;;17.08;12.32;;;;;;;-0.33;86.64;98556.19;4172614;28;20206;-86
2023/01/21 03:59:28;;;;;;;17.58;11.77;;;;;;;-0.33;86.59;98551.06;4137998;28;20215;-86
2023/01/21 04:01:31;;;;;;;18.38;12.15;;;;;;;-0.31;86.05;98558.72;4172061;28;20256;-86
2023/01/21 04:03:34;;;;;;;16.42;11.77;;;;;;;-0.32;86.31;98559.59;4153574;28;20199;-87
2023/01/21 04:05:37;;;;;;;15.68;11.52;;;;;;;-0.35;85.93;98559.66;4172433;28;20198;-87
2023/01/21 04:07:40;;;;;;;18.38;12.35;;;;;;;-0.39;86.24;98564.00;4152441;28;20214;-86
2023/01/21 04:09:45;;;;;;;16.65;11.90;;;;;;;-0.41;85.52;98568.31;4154838;28;20245;-86
2023/01/21 04:11:48;;;;;;;16.95;12.88;;;;;;;-0.47;85.04;98557.31;4170451;28;20228;-86
2023/01/21 04:13:51;;;;;;;18.90;12.55;;;;;;;-0.50;84.86;98562.47;4165521;28;20226;-86
2023/01/21 04:15:54;;;;;;;15.45;11.60;;;;;;;-0.52;84.98;98568.53;4168496;28;20255;-87
2023/01/21 04:17:57;;;;;;;18.00;12.45;;;;;;;-0.54;85.11;98571.09;4151340;28;20561;-87
2023/01/21 04:20:00;;;;;;;16.48;12.65;;;;;;;-0.56;85.39;98562.59;4169700;28;20859;-86
2023/01/21 04:22:03;;;;;;;16.05;11.65;;;;;;;-0.55;85.44;98564.28;4169994;28;21556;-86
2023/01/21 04:24:06;;;;;;;19.88;14.05;;;;;;;-0.53;85.76;98574.50;4149544;28;20213;-86
2023/01/21 04:26:11;;;;;;;18.60;12.10;;;;;;;-0.51;85.83;98580.44;4156076;28;20210;-86
2023/01/21 04:28:14;;;;;;;17.73;12.30;;;;;;;-0.54;85.83;98567.69;4169630;28;20301;-86
2023/01/21 04:30:17;;;;;;;17.65;12.43;;;;;;;-0.55;85.80;98571.13;4153147;28;20211;-87
2023/01/21 04:32:21;;;;;;;18.50;12.90;;;;;;;-0.53;85.78;98571.94;4173115;28;20210;-87
2023/01/21 04:34:24;;;;;;;21.33;13.70;;;;;;;-0.51;86.00;98567.63;4140165;28;20269;-87
2023/01/21 04:36:27;;;;;;;18.25;12.80;;;;;;;-0.47;86.02;98572.66;4171704;28;20229;-87
2023/01/21 04:38:30;;;;;;;21.45;13.65;;;;;;;-0.48;86.06;98570.13;4149788;28;20230;-87
2023/01/21 04:40:33;;;;;;;21.38;14.13;;;;;;;-0.45;86.24;98569.22;4155815;28;20630;-87
2023/01/21 04:42:37;;;;;;;22.02;15.07;;;;;;;-0.38;86.31;98570.78;4153294;28;20256;-87
2023/01/21 04:44:40;;;;;;;22.30;15.50;;;;;;;-0.32;86.48;98575.78;4139464;28;22046;-87
2023/01/21 04:46:43;;;;;;;27.00;16.30;;;;;;;-0.26;86.80;98585.94;4171742;28;20203;-87
2023/01/21 04:48:46;;;;;;;29.13;15.48;;;;;;;-0.23;86.90;98583.31;4156165;28;20199;-87
2023/01/21 04:50:49;;;;;;;20.23;13.82;;;;;;;-0.25;86.46;98579.94;4175473;28;20232;-87
2023/01/21 04:52:52;;;;;;;25.85;15.27;;;;;;;-0.26;86.13;98583.38;4169247;28;20314;-87
2023/01/21 04:54:55;;;;;;;23.60;15.77;;;;;;;-0.27;86.08;98591.94;4142750;28;20734;-87
2023/01/21 04:56:59;;;;;;;28.40;18.65;;;;;;;-0.31;86.50;98587.75;4158165;28;20725;-87
2023/01/21 04:59:03;;;;;;;31.20;19.70;;;;;;;-0.33;86.53;98591.19;4171381;28;20217;-88
2023/01/21 05:01:06;;;;;;;28.58;18.35;;;;;;;-0.41;86.04;98585.38;4153118;28;20782;-87
2023/01/21 05:03:09;;;;;;;29.38;19.50;;;;;;;-0.61;87.15;98581.47;4174526;28;20551;-87
2023/01/21 05:05:12;;;;;;;32.95;19.65;;;;;;;-0.76;87.89;98586.84;4159108;28;20776;-86
2023/01/21 05:07:15;;;;;;;31.77;20.25;;;;;;;-0.84;88.24;98588.69;4157248;28;20280;-87
2023/01/21 05:09:18;;;;;;;29.88;18.83;;;;;;;-0.93;88.99;98593.97;4152665;28;20258;-86
2023/01/21 05:11:21;;;;;;;32.67;19.63;;;;;;;-0.98;88.64;98594.88;4172677;28;20210;-87
2023/01/21 05:13:24;;;;;;;32.90;20.60;;;;;;;-1.09;89.50;98591.66;4160324;28;20230;-87
2023/01/21 05:15:29;;;;;;;33.58;20.98;;;;;;;-1.18;89.78;98597.75;4166326;28;20217;-87
2023/01/21 05:17:32;;;;;;;34.95;20.75;;;;;;;-1.24;90.23;98597.81;4167945;28;20809;-87
2023/01/21 05:19:35;;;;;;;33.80;21.13;;;;;;;-1.26;90.59;98601.28;4154292;28;20277;-87
2023/01/21 05:21:38;;;;;;;31.38;19.98;;;;;;;-1.24;90.29;98609.78;4157271;28;20199;-87
2023/01/21 05:23:41;;;;;;;36.78;21.25;;;;;;;-1.31;90.49;98608.16;4140715;28;20214;-87
2023/01/21 05:25:44;;;;;;;32.45;20.17;;;;;;;-1.36;90.54;98605.66;4156137;28;20202;-87
2023/01/21 05:27:52;;;;;;;31.08;19.52;;;;;;;-1.39;90.66;98605.69;4170906;28;20236;-87
2023/01/21 05:29:55;;;;;;;33.95;19.05;;;;;;;-1.42;90.67;98600.63;4136444;28;20702;-87
2023/01/21 05:32:00;;;;;;;36.58;20.02;;;;;;;-1.43;90.88;98607.50;4159714;28;20195;-87
2023/01/21 05:34:03;;;;;;;34.30;20.35;;;;;;;-1.43;90.39;98607.50;4171184;28;20202;-87
2023/01/21 05:36:07;;;;;;;31.67;19.65;;;;;;;-1.38;90.36;98606.56;4157798;28;20226;-87
2023/01/21 05:38:10;;;;;;;33.45;19.20;;;;;;;-1.34;90.05;98614.19;4156149;28;20214;-87
2023/01/21 05:40:14;;;;;;;35.42;20.40;;;;;;;-1.34;89.99;98616.75;4175197;28;20233;-87
2023/01/21 05:42:18;;;;;;;32.38;19.13;;;;;;;-1.34;89.90;98616.75;4170885;28;20256;-87
2023/01/21 05:44:21;;;;;;;31.55;18.40;;;;;;;-1.27;89.75;98618.31;4174124;28;20233;-87
2023/01/21 05:46:24;;;;;;;30.45;18.60;;;;;;;-1.22;89.58;98623.38;4155977;28;20682;-87
2023/01/21 05:48:29;;;;;;;32.60;18.88;;;;;;;-1.18;89.49;98625.88;4158493;28;20210;-87
2023/01/21 05:50:32;;;;;;;26.88;17.63;;;;;;;-1.12;89.33;98625.78;4154226;28;20210;-87
2023/01/21 05:52:35;;;;;;;34.10;20.35;;;;;;;-1.06;88.90;98622.31;4173128;28;20213;-87
2023/01/21 05:54:38;;;;;;;31.73;19.52;;;;;;;-1.00;88.98;98624.78;4172368;28;20305;-87
2023/01/21 05:56:57;;;;;;;32.55;18.95;;;;;;;-0.94;88.53;98629.81;4144963;28;20215;-87
2023/01/21 05:59:00;;;;;;;34.00;20.05;;;;;;;-0.96;88.39;98632.38;4143287;28;20247;-87
2023/01/21 06:01:04;;;;;;;30.25;18.90;;;;;;;-0.96;87.79;98631.50;4174272;28;20850;-87
2023/01/21 06:03:07;;;;;;;29.10;17.80;;;;;;;-0.97;87.77;98629.84;4155028;28;20199;-87
2023/01/21 06:05:11;;;;;;;32.50;17.98;;;;;;;-0.96;88.14;98631.50;4154933;28;20218;-87
2023/01/21 06:07:14;;;;;;;30.05;18.30;;;;;;;-0.91;87.99;98630.59;4143015;28;20230;-87
2023/01/21 06:09:17;;;;;;;31.88;18.70;;;;;;;-0.89;87.52;98633.97;4171075;28;20654;-87
2023/01/21 06:11:20;;;;;;;31.17;17.95;;;;;;;-0.84;87.40;98637.31;4154750;28;20327;-87
2023/01/21 06:13:23;;;;;;;30.77;18.33;;;;;;;-0.80;87.27;98634.69;4170433;28;20241;-87
2023/01/21 06:15:26;;;;;;;31.23;18.17;;;;;;;-0.82;87.06;98633.84;4154451;28;20674;-87
2023/01/21 06:17:29;;;;;;;29.85;16.90;;;;;;;-0.83;86.98;98637.28;4150860;28;21260;-86
2023/01/21 06:19:32;;;;;;;25.20;15.13;;;;;;;-0.80;86.96;98638.94;4135110;28;20220;-86
2023/01/21 06:21:37;;;;;;;29.00;16.63;;;;;;;-0.78;87.06;98642.34;4156075;28;20249;-87
2023/01/21 06:23:40;;;;;;;34.50;18.23;;;;;;;-0.80;87.03;98641.50;4158438;28;20214;-87
2023/01/21 06:25:43;;;;;;;29.77;16.73;;;;;;;-0.80;87.07;98649.19;4174638;28;20208;-87
2023/01/21 06:27:46;;;;;;;30.75;16.20;;;;;;;-0.76;86.96;98654.22;4167565;28;20201;-87
2023/01/21 06:29:49;;;;;;;28.30;15.57;;;;;;;-0.74;87.06;98649.91;4171938;28;20662;-87
2023/01/21 06:31:52;;;;;;;29.80;16.10;;;;;;;-0.74;87.08;98644.81;4155605;28;20217;-87
2023/01/21 06:33:55;;;;;;;29.40;16.88;;;;;;;-0.71;86.87;98654.16;4173636;28;20572;-87
2023/01/21 06:35:58;;;;;;;30.80;17.35;;;;;;;-0.69;86.86;98655.84;4170753;28;20727;-86
2023/01/21 06:38:03;;;;;;;30.92;17.90;;;;;;;-0.67;87.53;98666.06;4137620;28;20200;-87
2023/01/21 06:40:07;;;;;;;28.65;17.00;;;;;;;-0.64;87.16;98660.88;4142182;28;20263;-87
2023/01/21 06:42:10;;;;;;;30.70;17.55;;;;;;;-0.62;87.44;98667.66;4143713;28;20222;-87
2023/01/21 06:44:13;;;;;;;29.60;16.80;;;;;;;-0.54;87.27;98667.53;4157888;28;20625;-87
2023/01/21 06:46:16;;;;;;;28.90;17.45;;;;;;;-0.51;87.36;98675.16;4152483;28;20239;-87
2023/01/21 06:48:20;;;;;;;30.83;17.10;;;;;;;-0.49;87.29;98681.97;4173620;28;20639;-87
2023/01/21 06:50:22;;;;;;;33.35;18.65;;;;;;;-0.43;87.27;98692.13;4153360;28;20286;-87
2023/01/21 06:52:25;;;;;;;30.98;16.63;;;;;;;-0.42;86.95;98686.97;4155588;28;20297;-87
2023/01/21 06:54:30;;;;;;;31.83;18.50;;;;;;;-0.39;87.35;98694.59;4172983;28;20210;-87
2023/01/21 06:56:33;;;;;;;32.17;18.10;;;;;;;-0.38;87.28;98696.28;4155346;28;20261;-87
2023/01/21 06:58:36;;;;;;;30.33;17.40;;;;;;;-0.38;87.27;98696.28;4138960;28;20669;-86
2023/01/21 07:00:39;;;;;;;31.92;18.17;;;;;;;-0.38;87.02;98701.41;4167391;28;20705;-87
2023/01/21 07:02:42;;;;;;;33.22;17.75;;;;;;;-0.33;87.38;98701.31;4172835;28;20631;-87
2023/01/21 07:04:45;;;;;;;30.35;16.98;;;;;;;-0.33;87.08;98706.44;4137106;28;20684;-87
2023/01/21 07:06:48;;;;;;;32.25;18.08;;;;;;;-0.28;86.99;98710.63;4171444;28;20305;-87
2023/01/21 07:08:51;;;;;;;31.88;17.98;;;;;;;-0.24;86.86;98713.97;4151172;28;20273;-87
2023/01/21 07:10:56;;;;;;;29.77;18.08;;;;;;;-0.19;87.27;98722.47;4169310;28;20285;-87
2023/01/21 07:12:59;;;;;;;34.65;18.73;;;;;;;-0.15;87.36;98721.53;4151954;28;20226;-87
2023/01/21 07:15:02;;;;;;;30.00;16.45;;;;;;;-0.12;86.92;98721.47;4135028;28;20204;-86
2023/01/21 07:17:05;;;;;;;31.05;16.60;;;;;;;-0.10;86.98;98728.28;4141414;28;20298;-87
2023/01/21 07:19:08;;;;;;;31.63;17.85;;;;;;;-0.07;87.17;98725.66;4138561;28;20226;-88
2023/01/21 07:21:11;;;;;;;32.47;17.02;;;;;;;-0.04;87.06;98727.34;4158515;28;20231;-87
2023/01/21 07:23:14;;;;;;;30.40;18.15;;;;;;;-0.01;87.01;98728.13;4152425;28;20211;-87
2023/01/21 07:25:17;;;;;;;35.45;19.63;;;;;;;0.02;86.81;98730.63;4169005;28;20210;-87
2023/01/21 07:27:22;;;;;;;33.85;18.50;;;;;;;0.08;87.23;98731.38;4140078;28;20251;-87
2023/01/21 07:29:26;;;;;;;34.03;18.65;;;;;;;0.12;87.56;98740.72;4173352;28;20205;-86
2023/01/21 07:31:29;;;;;;;29.52;16.90;;;;;;;0.16;87.07;98736.38;4149983;28;20210;-87
2023/01/21 07:33:33;;;;;;;30.38;17.17;;;;;;;0.18;86.95;98744.88;4172899;28;20749;-87
2023/01/21 07:35:36;;;;;;;31.58;17.05;;;;;;;0.22;87.50;98749.06;4153434;28;20212;-86
2023/01/21 07:37:39;;;;;;;31.42;17.42;;;;;;;0.27;87.43;98742.13;4155699;28;20297;-86
2023/01/21 07:39:42;;;;;;;34.35;17.95;;;;;;;0.31;87.10;98752.31;4164480;28;20206;-87
2023/01/21 07:41:45;;;;;;;36.85;18.83;;;;;;;0.31;86.77;98741.22;4165603;28;20202;-87
2023/01/21 07:43:50;;;;;;;33.53;18.45;;;;;;;0.33;87.42;98748.03;4151326;28;20334;-87
2023/01/21 07:45:53;;;;;;;28.23;16.58;;;;;;;0.38;87.68;98753.91;4166451;28;20237;-87
2023/01/21 07:47:56;;;;;;;27.67;16.35;;;;;;;0.39;87.20;98750.44;4165027;28;20269;-88
2023/01/21 07:50:03;;;;;;;32.03;16.83;;;;;;;0.41;86.98;98748.72;4169404;28;20203;-87
2023/01/21 07:52:06;;;;;;;43.38;18.10;;;;;;;0.40;87.03;98751.31;4157730;28;20289;-88
2023/01/21 07:54:10;;;;;;;32.67;17.33;;;;;;;0.42;87.02;98759.81;4167786;28;20209;-87
2023/01/21 07:56:13;;;;;;;29.48;15.70;;;;;;;0.45;87.11;98749.50;4174030;28;20214;-88
2023/01/21 07:58:16;;;;;;;31.92;16.65;;;;;;;0.48;86.87;98751.16;4170798;28;20211;-87
2023/01/21 08:00:22;;;;;;;37.55;18.25;;;;;;;0.53;86.98;98751.91;4170197;28;20735;-88
2023/01/21 08:02:25;;;;;;;31.73;16.23;;;;;;;0.59;86.48;98754.34;4169501;28;20296;-88
2023/01/21 08:04:28;;;;;;;29.33;15.93;;;;;;;0.65;86.82;98768.78;4174144;28;20229;-88
2023/01/21 08:06:31;;;;;;;30.35;17.50;;;;;;;0.68;86.75;98758.47;4139538;28;20238;-87
2023/01/21 08:08:35;;;;;;;27.80;15.85;;;;;;;0.72;86.72;98771.22;4139512;28;20883;-89
2023/01/21 08:10:38;;;;;;;26.73;15.00;;;;;;;0.75;86.66;98768.59;4152091;28;20617;-88
2023/01/21 08:12:41;;;;;;;31.23;17.08;;;;;;;0.78;86.25;98770.25;4171365;28;20309;-87
2023/01/21 08:14:44;;;;;;;30.00;16.02;;;;;;;0.78;85.79;98763.38;4134804;28;20662;-88
2023/01/21 08:16:49;;;;;;;27.60;15.55;;;;;;;0.80;86.08;98771.91;4154723;28;20269;-87
2023/01/21 08:18:52;;;;;;;28.30;15.45;;;;;;;0.82;86.44;98767.59;4150954;28;20667;-88
2023/01/21 08:20:55;;;;;;;29.75;17.27;;;;;;;0.83;86.09;98769.28;4171377;28;20219;-87
2023/01/21 08:23:00;;;;;;;35.58;18.60;;;;;;;0.87;86.09;98770.91;4159354;28;20294;-85
2023/01/21 08:25:04;;;;;;;33.00;18.77;;;;;;;0.90;86.41;98773.41;4154960;28;20195;-85
2023/01/21 08:27:08;;;;;;;34.20;18.13;;;;;;;0.93;86.03;98765.63;4171165;28;20213;-85
2023/01/21 08:29:11;;;;;;;30.98;17.60;;;;;;;0.95;86.12;98763.91;4149402;28;20203;-85
2023/01/21 08:31:14;;;;;;;33.05;17.77;;;;;;;0.97;85.98;98769.84;4167380;28;20210;-85
2023/01/21 08:33:19;;;;;;;28.30;17.38;;;;;;;0.98;86.29;98764.69;4137736;28;20973;-84
2023/01/21 08:35:23;;;;;;;30.83;17.60;;;;;;;1.03;86.58;98769.72;4172809;28;20205;-84
2023/01/21 08:37:26;;;;;;;28.08;15.65;;;;;;;1.06;86.64;98778.19;4152357;28;20264;-84
2023/01/21 08:39:29;;;;;;;32.15;17.58;;;;;;;1.09;86.36;98774.75;4142050;28;20298;-84
2023/01/21 08:41:32;;;;;;;31.80;17.70;;;;;;;1.09;86.12;98773.00;4160358;28;20228;-85
2023/01/21 08:43:35;;;;;;;29.17;17.30;;;;;;;1.14;85.90;98780.63;4133059;28;20987;-85
2023/01/21 08:45:38;;;;;;;44.60;23.42;;;;;;;1.17;86.08;98772.84;4171054;28;20724;-85
2023/01/21 08:47:43;;;;;;;35.35;20.75;;;;;;;1.19;85.83;98771.94;4142700;28;20260;-85
2023/01/21 08:49:47;;;;;;;32.70;18.00;;;;;;;1.23;86.27;98775.28;4149178;28;20215;-85
2023/01/21 08:51:50;;;;;;;27.95;16.15;;;;;;;1.26;85.69;98770.09;4148578;28;20204;-87
2023/01/21 08:53:53;;;;;;;42.65;21.77;;;;;;;1.29;85.68;98768.28;4145011;28;20315;-87
2023/01/21 08:55:58;;;;;;;34.55;17.67;;;;;;;1.33;85.67;98774.22;4134061;28;20207;-86
2023/01/21 08:58:02;;;;;;;29.83;16.17;;;;;;;1.37;85.16;98776.72;4143492;28;20691;-84
2023/01/21 09:00:06;;;;;;;38.08;19.63;;;;;;;1.40;85.39;98779.22;4148912;28;20219;-85
2023/01/21 09:02:11;;;;;;;40.00;21.27;;;;;;;1.40;85.63;98780.03;4152751;28;20228;-85
2023/01/21 09:04:14;;;;;;;38.95;22.85;;;;;;;1.45;85.40;98788.50;4174496;28;20218;-85
2023/01/21 09:06:18;;;;;;;42.65;23.70;;;;;;;1.48;85.71;98782.44;4157622;28;20451;-85
2023/01/21 09:08:21;;;;;;;30.60;17.67;;;;;;;1.51;84.79;98788.34;4139669;28;20216;-85
2023/01/21 09:12:44;;;;;;;29.27;18.08;;;;;;;1.58;85.23;98791.63;4168949;28;20225;-85
2023/01/21 09:14:48;;;;;;;30.20;17.90;;;;;;;1.62;85.40;98790.69;4156628;28;20207;-85
2023/01/21 09:16:51;;;;;;;31.95;18.90;;;;;;;1.66;85.24;98790.59;4152402;28;20214;-84
2023/01/21 09:18:55;;;;;;;33.80;19.60;;;;;;;1.69;85.64;98790.53;4168038;28;20217;-85
2023/01/21 09:21:01;;;;;;;31.80;19.15;;;;;;;1.73;85.69;98789.59;4147625;28;20219;-85
2023/01/21 09:23:22;;;;;;;27.92;18.20;;;;;;;1.78;85.66;98795.47;4168749;28;20202;-85
2023/01/21 09:25:26;;;;;;;31.35;18.73;;;;;;;1.79;85.01;98791.16;4173653;28;20218;-87
2023/01/21 09:27:29;;;;;;;30.30;19.60;;;;;;;1.81;84.77;98797.13;4157017;28;20205;-85
2023/01/21 09:29:33;;;;;;;29.90;19.25;;;;;;;1.79;85.69;98804.00;4176677;28;20206;-86
2023/01/21 09:31:36;;;;;;;29.55;19.75;;;;;;;1.79;85.38;98804.00;4176713;28;20673;-85
2023/01/21 09:33:42;;;;;;;32.50;19.92;;;;;;;1.84;85.86;98802.19;4160982;28;20207;-86
2023/01/21 09:35:45;;;;;;;28.08;17.83;;;;;;;1.85;85.81;98804.72;4175689;28;20237;-86
2023/01/21 09:37:48;;;;;;;32.70;19.23;;;;;;;1.89;85.59;98807.19;4142005;28;20818;-85
2023/01/21 09:39:52;;;;;;;29.88;18.27;;;;;;;1.91;85.36;98805.44;4178099;28;20289;-85
2023/01/21 09:41:56;;;;;;;33.50;18.88;;;;;;;1.93;85.21;98811.38;4157324;28;20215;-85